Time;durP1;ratioP1;P1;durP2;ratioP2;P2;SDS_P1;SDS_P2;PMS_P1;PMS_P2;Temp;Humidity;BMP_temperature;BMP_pressure;BME280_temperature;BME280_humidity;BME280_pressure;Samples;Min_cycle;Max_cycle;Signal;HPM_P1;HPM_P2
2022/03/30 00:01:45;;;;;;;;;49.00;41.25;;;;;;;;5029320;28;10911;-74
2022/03/30 00:04:13;;;;;;;;;43.50;39.75;;;;;;;;5039209;28;11121;-73
2022/03/30 00:06:41;;;;;;;;;30.00;29.00;;;;;;;;5036987;28;10957;-73
2022/03/30 00:09:08;;;;;;;;;41.00;38.00;;;;;;;;5040546;28;10751;-73
2022/03/30 00:11:35;;;;;;;;;47.00;39.25;;;;;;;;5036499;28;10865;-72
2022/03/30 00:14:02;;;;;;;;;34.75;33.25;;;;;;;;5016841;28;11451;-73
2022/03/30 00:16:30;;;;;;;;;32.00;24.00;;;;;;;;5036941;28;10747;-72
2022/03/30 00:18:57;;;;;;;;;45.00;38.00;;;;;;;;5017952;28;10720;-73
2022/03/30 00:21:26;;;;;;;;;50.75;39.25;;;;;;;;5018367;28;10920;-72
2022/03/30 00:23:53;;;;;;;;;54.25;42.75;;;;;;;;5030421;28;11068;-73
2022/03/30 00:26:21;;;;;;;;;39.00;34.50;;;;;;;;5034176;28;11133;-74
2022/03/30 00:28:48;;;;;;;;;40.75;36.25;;;;;;;;5028076;28;10874;-73
2022/03/30 00:31:18;;;;;;;;;43.75;36.50;;;;;;;;5036459;28;11505;-73
2022/03/30 00:33:46;;;;;;;;;47.50;42.00;;;;;;;;5038634;28;11153;-73
2022/03/30 00:36:14;;;;;;;;;37.00;33.00;;;;;;;;5038355;28;11084;-74
2022/03/30 00:38:42;;;;;;;;;49.75;42.00;;;;;;;;5035163;28;11153;-73
2022/03/30 00:41:10;;;;;;;;;48.00;39.25;;;;;;;;5035893;28;11465;-73
2022/03/30 00:43:37;;;;;;;;;43.25;39.00;;;;;;;;5019941;28;11912;-73
2022/03/30 00:46:04;;;;;;;;;43.50;38.50;;;;;;;;5040565;28;11455;-72
2022/03/30 00:48:32;;;;;;;;;54.50;43.75;;;;;;;;5038390;28;11125;-72
2022/03/30 00:50:59;;;;;;;;;39.25;36.00;;;;;;;;5033788;28;11461;-73
2022/03/30 00:53:26;;;;;;;;;48.50;39.25;;;;;;;;5019922;28;11129;-72
2022/03/30 00:55:55;;;;;;;;;47.75;40.00;;;;;;;;5035799;28;11513;-72
2022/03/30 00:58:24;;;;;;;;;43.25;38.25;;;;;;;;5037087;28;11478;-73
2022/03/30 01:00:51;;;;;;;;;51.00;42.00;;;;;;;;5038505;28;11392;-72
2022/03/30 01:03:19;;;;;;;;;57.75;47.50;;;;;;;;5036681;28;11480;-73
2022/03/30 01:05:46;;;;;;;;;49.25;41.25;;;;;;;;5036750;28;11483;-72
2022/03/30 01:08:14;;;;;;;;;55.50;43.50;;;;;;;;5038940;28;12260;-73
2022/03/30 01:10:41;;;;;;;;;43.25;38.75;;;;;;;;5036947;28;12297;-72
2022/03/30 01:13:10;;;;;;;;;47.00;40.50;;;;;;;;5037465;28;12205;-72
2022/03/30 01:15:38;;;;;;;;;37.50;35.50;;;;;;;;5033013;28;11510;-73
2022/03/30 01:18:05;;;;;;;;;44.75;38.50;;;;;;;;5039035;28;11115;-72
2022/03/30 01:20:33;;;;;;;;;44.00;38.75;;;;;;;;5035102;28;11481;-72
2022/03/30 01:23:03;;;;;;;;;45.00;41.00;;;;;;;;5036778;28;12036;-73
2022/03/30 01:25:30;;;;;;;;;49.75;41.00;;;;;;;;5036168;28;11319;-72
2022/03/30 01:27:57;;;;;;;;;48.75;41.75;;;;;;;;5030953;28;11460;-73
2022/03/30 01:33:09;;;;;;;;;52.75;41.75;;;;;;;;5040360;28;11468;-72
2022/03/30 01:35:37;;;;;;;;;59.50;44.25;;;;;;;;5042099;28;11489;-74
2022/03/30 01:38:05;;;;;;;;;50.25;39.25;;;;;;;;5041120;28;11468;-74
2022/03/30 01:40:33;;;;;;;;;49.75;38.75;;;;;;;;5036928;28;11464;-72
2022/03/30 01:43:00;;;;;;;;;42.50;35.00;;;;;;;;5024542;28;11482;-72
2022/03/30 01:45:28;;;;;;;;;57.25;45.25;;;;;;;;5046504;28;11300;-74
2022/03/30 01:47:58;;;;;;;;;49.25;42.25;;;;;;;;5030892;28;11528;-73
2022/03/30 01:50:26;;;;;;;;;50.75;43.00;;;;;;;;5039085;28;11499;-72
2022/03/30 01:52:55;;;;;;;;;61.50;48.25;;;;;;;;5037916;28;11549;-73
2022/03/30 01:55:24;;;;;;;;;58.50;48.00;;;;;;;;5039927;28;11495;-73
2022/03/30 01:57:51;;;;;;;;;55.00;42.50;;;;;;;;5037417;28;11483;-74
2022/03/30 02:00:19;;;;;;;;;48.75;40.75;;;;;;;;5035959;28;11551;-72
2022/03/30 02:02:47;;;;;;;;;61.25;41.25;;;;;;;;5039658;28;11464;-72
2022/03/30 02:05:16;;;;;;;;;49.25;41.00;;;;;;;;5041623;28;11517;-72
2022/03/30 02:07:43;;;;;;;;;55.00;44.50;;;;;;;;5039674;28;11522;-73
2022/03/30 02:10:11;;;;;;;;;49.75;40.75;;;;;;;;5035357;28;12361;-73
2022/03/30 02:12:40;;;;;;;;;54.25;42.25;;;;;;;;5037167;28;11481;-73
2022/03/30 02:15:10;;;;;;;;;55.75;44.00;;;;;;;;5026972;28;11463;-72
2022/03/30 02:17:39;;;;;;;;;50.50;42.75;;;;;;;;5034910;28;11457;-74
2022/03/30 02:20:08;;;;;;;;;57.00;47.00;;;;;;;;5037439;28;11593;-73
2022/03/30 02:22:35;;;;;;;;;58.25;47.50;;;;;;;;5036751;28;11509;-73
2022/03/30 02:25:02;;;;;;;;;54.25;45.50;;;;;;;;5040172;28;11665;-74
2022/03/30 02:27:30;;;;;;;;;43.25;39.50;;;;;;;;5031774;28;11466;-73
2022/03/30 02:29:59;;;;;;;;;50.50;41.75;;;;;;;;5039328;28;11469;-72
2022/03/30 02:32:26;;;;;;;;;39.50;37.00;;;;;;;;5039050;28;11448;-73
2022/03/30 02:34:54;;;;;;;;;41.75;38.50;;;;;;;;5036494;28;12242;-73
2022/03/30 02:37:22;;;;;;;;;40.50;37.00;;;;;;;;5038521;28;11535;-72
2022/03/30 02:39:49;;;;;;;;;46.50;39.00;;;;;;;;5040015;28;11529;-73
2022/03/30 02:42:18;;;;;;;;;56.00;46.25;;;;;;;;5037932;28;11522;-74
2022/03/30 02:44:45;;;;;;;;;56.25;43.25;;;;;;;;5044297;28;11654;-74
2022/03/30 02:47:14;;;;;;;;;62.75;49.50;;;;;;;;5041557;28;11526;-73
2022/03/30 02:49:42;;;;;;;;;57.50;45.25;;;;;;;;5033567;28;12330;-74
2022/03/30 02:52:09;;;;;;;;;56.25;44.00;;;;;;;;5038937;28;11653;-73
2022/03/30 02:54:36;;;;;;;;;52.25;44.00;;;;;;;;5038789;28;11545;-73
2022/03/30 02:57:04;;;;;;;;;62.75;49.75;;;;;;;;5033836;28;11529;-73
2022/03/30 02:59:31;;;;;;;;;52.75;44.00;;;;;;;;5036774;28;12281;-73
2022/03/30 03:01:59;;;;;;;;;53.50;44.75;;;;;;;;5037464;28;11461;-73
2022/03/30 03:04:28;;;;;;;;;52.75;44.25;;;;;;;;5038155;28;11642;-72
2022/03/30 03:06:56;;;;;;;;;43.75;38.75;;;;;;;;5040185;28;11510;-72
2022/03/30 03:09:23;;;;;;;;;39.75;34.75;;;;;;;;5038355;28;12777;-76
2022/03/30 03:11:50;;;;;;;;;48.75;38.25;;;;;;;;5033095;28;12307;-72
2022/03/30 03:14:17;;;;;;;;;46.75;40.25;;;;;;;;5037919;28;11949;-72
2022/03/30 03:16:45;;;;;;;;;59.75;48.00;;;;;;;;5037525;28;11505;-73
2022/03/30 03:19:12;;;;;;;;;48.00;42.00;;;;;;;;5022121;28;11529;-74
2022/03/30 03:21:41;;;;;;;;;54.75;42.00;;;;;;;;5039977;28;11517;-73
2022/03/30 03:24:09;;;;;;;;;52.75;42.25;;;;;;;;5040744;28;11516;-73
2022/03/30 03:26:36;;;;;;;;;51.50;41.50;;;;;;;;5038439;28;11643;-74
2022/03/30 03:29:04;;;;;;;;;57.25;47.75;;;;;;;;5033650;28;11653;-74
2022/03/30 03:31:31;;;;;;;;;45.75;41.75;;;;;;;;5040169;28;11502;-73
2022/03/30 03:33:58;;;;;;;;;54.50;44.75;;;;;;;;5034201;28;11569;-72
2022/03/30 03:36:26;;;;;;;;;67.00;50.00;;;;;;;;5040464;28;11578;-72
2022/03/30 03:38:54;;;;;;;;;58.50;46.75;;;;;;;;5026826;28;11543;-73
2022/03/30 03:41:22;;;;;;;;;46.75;41.00;;;;;;;;5036980;28;11658;-72
2022/03/30 03:43:50;;;;;;;;;52.50;44.25;;;;;;;;5035150;28;11548;-73
2022/03/30 03:46:17;;;;;;;;;51.50;42.75;;;;;;;;5037132;28;11500;-73
2022/03/30 03:48:44;;;;;;;;;51.75;43.50;;;;;;;;5041047;28;11547;-73
2022/03/30 03:51:11;;;;;;;;;47.50;42.00;;;;;;;;5031632;28;12183;-73
2022/03/30 03:53:39;;;;;;;;;49.25;42.50;;;;;;;;5034866;28;11541;-74
2022/03/30 03:56:09;;;;;;;;;52.50;45.25;;;;;;;;5037140;28;11605;-74
2022/03/30 03:58:36;;;;;;;;;63.25;52.00;;;;;;;;5034734;28;11679;-74
2022/03/30 04:01:03;;;;;;;;;60.25;49.00;;;;;;;;5032571;28;11461;-71
2022/03/30 04:03:31;;;;;;;;;51.75;44.75;;;;;;;;5014264;28;11523;-74
2022/03/30 04:05:58;;;;;;;;;66.00;52.25;;;;;;;;5037199;28;11609;-74
2022/03/30 04:08:25;;;;;;;;;58.75;49.00;;;;;;;;5021005;28;11643;-72
2022/03/30 04:10:53;;;;;;;;;61.00;49.25;;;;;;;;5041130;28;11503;-79
2022/03/30 04:13:22;;;;;;;;;63.50;51.00;;;;;;;;5038141;28;11574;-75
2022/03/30 04:15:50;;;;;;;;;65.75;53.00;;;;;;;;5015207;28;11547;-75
2022/03/30 04:18:17;;;;;;;;;68.75;52.75;;;;;;;;5038473;28;11532;-74
2022/03/30 04:20:45;;;;;;;;;69.50;56.75;;;;;;;;5041032;28;12433;-74
2022/03/30 04:23:12;;;;;;;;;74.75;57.00;;;;;;;;5038806;28;11537;-74
2022/03/30 04:25:40;;;;;;;;;70.25;56.50;;;;;;;;5036626;28;12464;-72
2022/03/30 04:28:07;;;;;;;;;67.75;54.00;;;;;;;;5040637;28;11512;-74
2022/03/30 04:30:36;;;;;;;;;73.75;55.50;;;;;;;;5038218;28;11462;-73
2022/03/30 04:33:03;;;;;;;;;74.50;56.25;;;;;;;;5040220;28;11530;-73
2022/03/30 04:35:30;;;;;;;;;50.75;41.00;;;;;;;;5039041;28;11553;-73
2022/03/30 04:37:58;;;;;;;;;66.75;54.25;;;;;;;;5040846;28;11610;-75
2022/03/30 04:40:28;;;;;;;;;77.00;58.50;;;;;;;;5039423;28;11537;-74
2022/03/30 04:42:55;;;;;;;;;83.00;62.50;;;;;;;;5036720;28;11527;-73
2022/03/30 04:45:23;;;;;;;;;66.75;54.75;;;;;;;;5040988;28;11514;-73
2022/03/30 04:47:53;;;;;;;;;70.50;56.50;;;;;;;;5037172;28;11508;-72
2022/03/30 04:50:21;;;;;;;;;77.25;57.50;;;;;;;;5038992;28;11535;-73
2022/03/30 04:52:49;;;;;;;;;71.75;55.00;;;;;;;;5036557;28;11543;-73
2022/03/30 04:55:16;;;;;;;;;71.50;55.75;;;;;;;;5036032;28;11516;-72
2022/03/30 04:57:44;;;;;;;;;74.25;54.75;;;;;;;;5034168;28;11550;-72
2022/03/30 05:00:13;;;;;;;;;65.50;51.50;;;;;;;;5033634;28;11571;-72
2022/03/30 05:02:41;;;;;;;;;68.50;55.00;;;;;;;;5036369;28;11561;-75
2022/03/30 05:05:11;;;;;;;;;69.00;54.25;;;;;;;;5018881;28;11721;-72
2022/03/30 05:07:38;;;;;;;;;64.25;51.50;;;;;;;;5037786;28;11576;-73
2022/03/30 05:10:10;;;;;;;;;62.25;48.75;;;;;;;;5035260;28;11530;-75
2022/03/30 05:12:38;;;;;;;;;63.25;50.00;;;;;;;;5035104;28;12532;-74
2022/03/30 05:15:07;;;;;;;;;58.50;47.00;;;;;;;;5033504;28;11553;-71
2022/03/30 05:17:34;;;;;;;;;67.25;51.50;;;;;;;;5033627;28;11589;-73
2022/03/30 05:20:01;;;;;;;;;63.75;52.25;;;;;;;;5033771;28;11647;-73
2022/03/30 05:22:30;;;;;;;;;53.75;47.25;;;;;;;;5033019;28;11554;-73
2022/03/30 05:24:57;;;;;;;;;58.50;46.25;;;;;;;;5035478;28;12259;-74
2022/03/30 05:27:24;;;;;;;;;63.50;49.50;;;;;;;;5040380;28;11521;-72
2022/03/30 05:29:52;;;;;;;;;61.75;50.00;;;;;;;;5042117;28;11515;-73
2022/03/30 05:32:19;;;;;;;;;61.50;49.00;;;;;;;;5034683;28;11501;-76
2022/03/30 05:34:47;;;;;;;;;66.50;52.50;;;;;;;;5040351;28;11571;-78
2022/03/30 05:37:14;;;;;;;;;65.50;50.25;;;;;;;;5041772;28;11535;-75
2022/03/30 05:39:43;;;;;;;;;61.00;51.75;;;;;;;;5043557;28;11532;-75
2022/03/30 05:42:10;;;;;;;;;67.75;54.50;;;;;;;;5043291;28;11507;-75
2022/03/30 05:44:39;;;;;;;;;64.00;50.25;;;;;;;;5047436;28;12314;-76
2022/03/30 05:47:08;;;;;;;;;65.50;51.50;;;;;;;;5039567;28;11572;-76
2022/03/30 05:49:35;;;;;;;;;68.75;54.75;;;;;;;;5039785;28;11162;-76
2022/03/30 05:52:03;;;;;;;;;69.75;52.75;;;;;;;;5037105;28;11538;-75
2022/03/30 05:54:30;;;;;;;;;64.50;50.50;;;;;;;;5039035;28;11631;-75
2022/03/30 05:57:02;;;;;;;;;67.50;53.00;;;;;;;;5039333;28;11521;-75
2022/03/30 05:59:30;;;;;;;;;57.75;42.25;;;;;;;;5036547;28;11522;-75
2022/03/30 06:01:57;;;;;;;;;67.00;49.50;;;;;;;;5040549;28;11482;-74
2022/03/30 06:04:25;;;;;;;;;67.00;54.25;;;;;;;;5043670;28;11577;-75
2022/03/30 06:06:52;;;;;;;;;65.25;51.50;;;;;;;;5042805;28;11546;-75
2022/03/30 06:09:20;;;;;;;;;63.50;51.50;;;;;;;;5036509;28;11573;-74
2022/03/30 06:11:48;;;;;;;;;65.25;51.75;;;;;;;;5033606;28;11517;-76
2022/03/30 06:14:17;;;;;;;;;61.75;47.75;;;;;;;;5040421;28;11636;-75
2022/03/30 06:16:45;;;;;;;;;56.75;41.00;;;;;;;;5029682;28;11687;-77
2022/03/30 06:19:12;;;;;;;;;59.25;48.00;;;;;;;;5040635;28;11516;-75
2022/03/30 06:21:41;;;;;;;;;65.75;53.00;;;;;;;;5032094;28;11628;-75
2022/03/30 06:24:10;;;;;;;;;69.25;55.25;;;;;;;;5034303;28;11501;-75
2022/03/30 06:26:38;;;;;;;;;66.50;49.00;;;;;;;;5042422;28;11550;-75
2022/03/30 06:29:05;;;;;;;;;66.25;50.25;;;;;;;;5014765;28;11624;-75
2022/03/30 06:31:34;;;;;;;;;60.75;49.50;;;;;;;;5031642;28;11600;-75
2022/03/30 06:34:02;;;;;;;;;59.25;47.50;;;;;;;;5039084;28;12443;-77
2022/03/30 06:36:31;;;;;;;;;64.50;51.00;;;;;;;;5044064;28;11518;-77
2022/03/30 06:38:59;;;;;;;;;58.00;48.00;;;;;;;;5029925;28;11542;-81
2022/03/30 06:41:27;;;;;;;;;63.75;51.50;;;;;;;;5028930;28;11535;-81
2022/03/30 06:43:56;;;;;;;;;65.75;50.25;;;;;;;;5040319;28;11543;-82
2022/03/30 06:46:24;;;;;;;;;62.25;48.50;;;;;;;;5025597;28;11628;-83
2022/03/30 06:48:53;;;;;;;;;60.50;46.50;;;;;;;;5027057;28;11527;-83
2022/03/30 06:51:20;;;;;;;;;61.25;51.25;;;;;;;;5036412;28;11554;-82
2022/03/30 06:53:47;;;;;;;;;56.75;44.25;;;;;;;;5035596;28;11525;-81
2022/03/30 06:56:15;;;;;;;;;68.50;54.00;;;;;;;;5037642;28;11503;-81
2022/03/30 06:58:42;;;;;;;;;69.50;55.75;;;;;;;;5035651;28;11582;-81
2022/03/30 07:01:12;;;;;;;;;63.50;51.00;;;;;;;;5037435;28;11598;-80
2022/03/30 07:03:39;;;;;;;;;62.00;51.25;;;;;;;;5036149;28;13118;-84
2022/03/30 07:06:08;;;;;;;;;61.75;51.00;;;;;;;;5039433;28;11541;-84
2022/03/30 07:11:21;;;;;;;;;61.00;49.00;;;;;;;;5038946;28;11470;-80
2022/03/30 07:13:48;;;;;;;;;66.75;53.25;;;;;;;;5040777;28;11498;-83
2022/03/30 07:16:16;;;;;;;;;68.00;53.75;;;;;;;;5031985;28;11551;-81
2022/03/30 07:18:43;;;;;;;;;63.25;50.25;;;;;;;;5043147;28;11650;-82
2022/03/30 07:21:12;;;;;;;;;57.25;48.75;;;;;;;;5041215;28;11480;-80
2022/03/30 07:23:39;;;;;;;;;54.50;46.25;;;;;;;;5021093;28;11520;-82
2022/03/30 07:26:07;;;;;;;;;61.25;48.25;;;;;;;;5034163;28;11487;-82
2022/03/30 07:28:37;;;;;;;;;56.00;45.00;;;;;;;;5040618;28;11497;-82
2022/03/30 07:31:04;;;;;;;;;62.25;48.50;;;;;;;;5036315;28;11532;-83
2022/03/30 07:33:33;;;;;;;;;41.50;36.75;;;;;;;;5030240;28;11506;-82
2022/03/30 07:36:00;;;;;;;;;53.00;43.00;;;;;;;;5034387;28;11579;-82
2022/03/30 07:38:29;;;;;;;;;55.75;43.50;;;;;;;;5013618;28;11455;-82
2022/03/30 07:41:00;;;;;;;;;56.75;44.00;;;;;;;;5037895;28;11563;-83
2022/03/30 07:43:27;;;;;;;;;62.50;50.00;;;;;;;;5020509;28;11455;-82
2022/03/30 07:45:55;;;;;;;;;45.50;40.50;;;;;;;;5054662;28;11499;-82
2022/03/30 07:48:22;;;;;;;;;48.25;42.75;;;;;;;;5037700;28;11455;-82
2022/03/30 07:50:50;;;;;;;;;54.00;45.50;;;;;;;;5041406;28;11538;-83
2022/03/30 07:53:17;;;;;;;;;58.50;46.25;;;;;;;;5037782;28;11500;-83
2022/03/30 07:55:47;;;;;;;;;52.00;45.00;;;;;;;;5019970;28;11293;-83
2022/03/30 07:58:14;;;;;;;;;59.75;45.75;;;;;;;;5021292;28;11191;-83
2022/03/30 08:00:42;;;;;;;;;56.75;46.50;;;;;;;;5041361;28;11421;-83
2022/03/30 08:03:10;;;;;;;;;56.00;44.25;;;;;;;;5018088;28;11669;-83
2022/03/30 08:05:37;;;;;;;;;57.00;46.00;;;;;;;;5010428;28;11584;-83
2022/03/30 08:08:06;;;;;;;;;59.00;48.00;;;;;;;;5034226;28;11926;-82
2022/03/30 08:10:35;;;;;;;;;53.25;45.00;;;;;;;;5040621;28;11483;-82
2022/03/30 08:13:04;;;;;;;;;54.75;45.25;;;;;;;;5033339;28;11958;-83
2022/03/30 08:15:32;;;;;;;;;60.50;48.75;;;;;;;;5042269;28;11206;-86
2022/03/30 08:18:05;;;;;;;;;58.25;47.50;;;;;;;;5036902;28;11228;-80
2022/03/30 08:23:18;;;;;;;;;57.25;47.25;;;;;;;;5024905;28;11175;-84
2022/03/30 08:25:45;;;;;;;;;52.25;43.50;;;;;;;;5030795;28;11067;-86
2022/03/30 08:28:15;;;;;;;;;57.25;47.25;;;;;;;;5033408;28;11890;-84
2022/03/30 08:30:43;;;;;;;;;60.25;46.50;;;;;;;;5003647;28;11022;-84
2022/03/30 08:33:11;;;;;;;;;59.00;47.75;;;;;;;;5023256;28;11294;-85
2022/03/30 08:35:38;;;;;;;;;59.00;47.25;;;;;;;;5025613;28;11070;-85
2022/03/30 08:38:05;;;;;;;;;62.75;51.00;;;;;;;;5024616;28;11259;-86
2022/03/30 08:40:34;;;;;;;;;54.75;44.50;;;;;;;;5037184;28;11332;-85
2022/03/30 08:43:03;;;;;;;;;57.75;46.25;;;;;;;;5023822;28;10967;-86
2022/03/30 08:45:34;;;;;;;;;63.25;49.00;;;;;;;;5052820;28;11010;-82
2022/03/30 08:48:02;;;;;;;;;62.00;48.75;;;;;;;;5011609;28;11715;-83
2022/03/30 08:50:30;;;;;;;;;59.75;48.75;;;;;;;;5026165;28;11208;-83
2022/03/30 08:53:02;;;;;;;;;56.25;45.75;;;;;;;;5042491;28;11202;-83
2022/03/30 08:55:29;;;;;;;;;61.25;48.50;;;;;;;;5031577;28;11003;-81
2022/03/30 08:57:56;;;;;;;;;55.50;46.25;;;;;;;;5029041;28;10907;-81
2022/03/30 09:00:25;;;;;;;;;58.25;46.75;;;;;;;;5022653;28;11024;-82
2022/03/30 09:03:00;;;;;;;;;62.50;50.50;;;;;;;;5024003;28;11491;-83
2022/03/30 09:05:29;;;;;;;;;61.00;48.50;;;;;;;;5025803;28;11126;-81
2022/03/30 09:08:09;;;;;;;;;61.00;49.75;;;;;;;;5026603;28;11071;-83
2022/03/30 09:10:36;;;;;;;;;62.50;51.00;;;;;;;;5033310;28;11097;-83
2022/03/30 09:13:06;;;;;;;;;62.50;49.25;;;;;;;;5027402;28;11260;-84
2022/03/30 09:15:36;;;;;;;;;61.25;46.75;;;;;;;;5020190;28;10971;-83
2022/03/30 09:18:06;;;;;;;;;61.75;50.25;;;;;;;;5042087;28;11019;-82
2022/03/30 09:20:35;;;;;;;;;62.75;50.75;;;;;;;;5031159;28;11029;-82
2022/03/30 09:23:02;;;;;;;;;56.50;45.50;;;;;;;;5041627;28;11169;-80
2022/03/30 09:25:31;;;;;;;;;64.25;51.00;;;;;;;;5022123;28;11076;-83
2022/03/30 09:28:00;;;;;;;;;64.00;51.50;;;;;;;;5037357;28;11086;-81
2022/03/30 09:30:29;;;;;;;;;61.75;50.75;;;;;;;;5023026;28;11844;-84
2022/03/30 09:32:57;;;;;;;;;60.50;49.50;;;;;;;;5036761;28;11816;-81
2022/03/30 09:35:28;;;;;;;;;60.25;49.50;;;;;;;;5031832;28;10929;-82
2022/03/30 09:38:08;;;;;;;;;58.25;46.25;;;;;;;;5030566;28;10915;-84
2022/03/30 09:40:42;;;;;;;;;58.25;48.00;;;;;;;;5041778;28;11067;-85
2022/03/30 09:43:18;;;;;;;;;55.75;45.00;;;;;;;;5021917;28;10974;-83
2022/03/30 09:45:47;;;;;;;;;65.50;52.50;;;;;;;;5035613;28;10807;-83
2022/03/30 09:48:17;;;;;;;;;61.00;48.25;;;;;;;;5035005;28;10997;-84
2022/03/30 09:50:58;;;;;;;;;61.50;49.75;;;;;;;;5033982;28;10879;-83
2022/03/30 09:53:30;;;;;;;;;63.75;52.25;;;;;;;;5035086;28;10790;-83
2022/03/30 09:56:02;;;;;;;;;58.75;45.75;;;;;;;;5027409;28;11105;-82
2022/03/30 09:58:31;;;;;;;;;62.75;51.50;;;;;;;;5028456;28;10924;-83
2022/03/30 10:01:17;;;;;;;;;66.25;51.50;;;;;;;;5039403;28;10972;-83
2022/03/30 10:03:48;;;;;;;;;59.50;49.25;;;;;;;;5028830;28;11022;-83
2022/03/30 10:06:18;;;;;;;;;60.50;50.50;;;;;;;;5044986;28;12024;-82
2022/03/30 10:08:47;;;;;;;;;65.00;50.75;;;;;;;;5014016;28;10956;-84
2022/03/30 10:11:16;;;;;;;;;55.00;44.50;;;;;;;;5023196;28;11035;-84
2022/03/30 10:13:46;;;;;;;;;58.75;48.00;;;;;;;;5027450;28;10809;-83
2022/03/30 10:16:16;;;;;;;;;57.25;47.50;;;;;;;;5051850;28;10676;-83
2022/03/30 10:18:44;;;;;;;;;56.75;45.00;;;;;;;;5026837;28;10901;-82
2022/03/30 10:21:20;;;;;;;;;53.50;46.00;;;;;;;;5038421;28;10707;-83
2022/03/30 10:24:31;;;;;;;;;56.00;45.50;;;;;;;;5025550;28;10650;-81
2022/03/30 10:27:06;;;;;;;;;61.25;49.00;;;;;;;;4969243;28;10752;-81
2022/03/30 10:29:33;;;;;;;;;65.75;50.50;;;;;;;;5025162;28;10691;-83
2022/03/30 10:32:15;;;;;;;;;56.75;47.25;;;;;;;;5029474;28;10553;-82
2022/03/30 10:35:02;;;;;;;;;63.50;50.25;;;;;;;;5037034;28;10378;-81
2022/03/30 10:37:34;;;;;;;;;59.25;49.25;;;;;;;;5043606;28;10431;-82
2022/03/30 10:40:16;;;;;;;;;57.50;47.75;;;;;;;;5037436;28;10570;-82
2022/03/30 10:43:03;;;;;;;;;58.50;48.50;;;;;;;;5026016;28;10412;-82
2022/03/30 10:45:46;;;;;;;;;58.75;49.00;;;;;;;;5031182;28;11188;-83
2022/03/30 10:48:20;;;;;;;;;60.75;49.50;;;;;;;;5025859;28;10096;-82
2022/03/30 10:50:55;;;;;;;;;64.00;51.00;;;;;;;;5039048;28;11592;-81
2022/03/30 10:53:43;;;;;;;;;57.00;48.50;;;;;;;;5046922;28;10286;-82
2022/03/30 10:56:36;;;;;;;;;53.25;44.00;;;;;;;;5044608;28;10215;-79
2022/03/30 10:59:08;;;;;;;;;54.75;44.75;;;;;;;;5033634;28;10236;-80
2022/03/30 11:01:38;;;;;;;;;59.75;49.00;;;;;;;;5022211;28;10033;-81
2022/03/30 11:04:07;;;;;;;;;56.00;45.75;;;;;;;;5042263;28;10232;-79
2022/03/30 11:06:37;;;;;;;;;55.75;46.00;;;;;;;;5044905;28;10616;-80
2022/03/30 11:09:07;;;;;;;;;51.75;40.25;;;;;;;;5043044;28;10134;-82
2022/03/30 11:11:39;;;;;;;;;47.25;39.00;;;;;;;;5042511;28;10035;-82
2022/03/30 11:14:26;;;;;;;;;52.25;39.75;;;;;;;;5043183;28;10062;-80
2022/03/30 11:16:54;;;;;;;;;56.50;46.25;;;;;;;;5040823;28;10248;-79
2022/03/30 11:19:29;;;;;;;;;51.25;43.50;;;;;;;;5040377;28;10295;-80
2022/03/30 11:22:08;;;;;;;;;54.75;44.75;;;;;;;;5033497;28;11023;-79
2022/03/30 11:24:38;;;;;;;;;52.00;43.50;;;;;;;;5019510;28;10326;-83
2022/03/30 11:27:22;;;;;;;;;56.25;46.25;;;;;;;;5040224;28;11001;-80
2022/03/30 11:30:14;;;;;;;;;53.00;41.50;;;;;;;;5032137;28;10263;-82
2022/03/30 11:33:22;;;;;;;;;53.00;43.25;;;;;;;;5029667;28;10233;-79
2022/03/30 11:35:50;;;;;;;;;50.00;43.50;;;;;;;;4994890;28;10424;-83
2022/03/30 11:38:24;;;;;;;;;54.50;44.50;;;;;;;;5040245;28;10290;-80
2022/03/30 11:41:01;;;;;;;;;46.00;38.75;;;;;;;;5036359;28;10114;-79
2022/03/30 11:43:29;;;;;;;;;52.50;42.50;;;;;;;;5038297;28;9953;-82
2022/03/30 11:45:58;;;;;;;;;52.75;44.50;;;;;;;;5042510;28;10205;-82
2022/03/30 11:48:27;;;;;;;;;57.25;47.50;;;;;;;;5043973;28;10103;-83
2022/03/30 11:50:58;;;;;;;;;52.50;45.00;;;;;;;;5041648;28;10175;-82
2022/03/30 11:53:28;;;;;;;;;53.50;42.00;;;;;;;;5043185;28;9953;-82
2022/03/30 11:55:59;;;;;;;;;53.75;42.25;;;;;;;;5039446;28;9672;-84
2022/03/30 11:58:29;;;;;;;;;53.00;43.00;;;;;;;;5043133;28;9890;-84
2022/03/30 12:00:58;;;;;;;;;50.75;42.75;;;;;;;;5037418;28;9610;-83
2022/03/30 12:03:26;;;;;;;;;51.00;42.00;;;;;;;;5043909;28;9912;-83
2022/03/30 12:05:55;;;;;;;;;56.00;45.75;;;;;;;;5041564;28;9621;-86
2022/03/30 12:08:26;;;;;;;;;52.25;41.75;;;;;;;;5040006;28;9770;-80
2022/03/30 12:10:59;;;;;;;;;48.33;39.67;;;;;;;;5042141;28;9666;-83
2022/03/30 12:13:29;;;;;;;;;51.50;42.50;;;;;;;;5040574;28;9433;-84
2022/03/30 12:16:10;;;;;;;;;48.00;41.50;;;;;;;;5042279;28;9500;-84
2022/03/30 12:18:45;;;;;;;;;54.50;43.25;;;;;;;;5039828;28;9394;-81
2022/03/30 12:21:16;;;;;;;;;52.75;43.00;;;;;;;;5039006;28;9574;-81
2022/03/30 12:23:56;;;;;;;;;51.00;42.00;;;;;;;;5035846;28;9501;-82
2022/03/30 12:26:26;;;;;;;;;40.67;36.00;;;;;;;;5020436;28;9397;-79
2022/03/30 12:29:03;;;;;;;;;50.00;38.33;;;;;;;;5040331;28;9253;-80
2022/03/30 12:31:34;;;;;;;;;47.33;39.00;;;;;;;;5035323;28;9040;-79
2022/03/30 12:34:09;;;;;;;;;55.00;45.33;;;;;;;;5040983;28;9186;-80
2022/03/30 12:36:41;;;;;;;;;42.67;37.00;;;;;;;;5038599;28;9969;-80
2022/03/30 12:39:16;;;;;;;;;44.00;39.00;;;;;;;;5041716;28;9082;-79
2022/03/30 12:41:45;;;;;;;;;52.00;44.00;;;;;;;;5040769;28;9084;-80
2022/03/30 12:44:13;;;;;;;;;48.67;39.00;;;;;;;;5037429;28;9194;-78
2022/03/30 12:46:41;;;;;;;;;48.33;40.67;;;;;;;;5038816;28;9191;-79
2022/03/30 12:49:10;;;;;;;;;50.00;42.67;;;;;;;;5040553;28;9004;-79
2022/03/30 12:51:39;;;;;;;;;52.00;42.67;;;;;;;;5040272;28;9092;-80
2022/03/30 12:54:21;;;;;;;;;46.67;39.00;;;;;;;;5038105;28;9269;-80
2022/03/30 12:56:50;;;;;;;;;47.67;36.67;;;;;;;;5036231;28;9114;-80
2022/03/30 12:59:20;;;;;;;;;43.00;36.00;;;;;;;;5036110;28;9192;-81
2022/03/30 13:01:49;;;;;;;;;48.67;41.33;;;;;;;;5037768;28;9274;-80
2022/03/30 13:04:22;;;;;;;;;49.00;38.33;;;;;;;;5022571;28;10035;-79
2022/03/30 13:07:21;;;;;;;;;40.00;36.33;;;;;;;;5039082;28;9208;-80
2022/03/30 13:10:10;;;;;;;;;42.33;35.33;;;;;;;;5024187;28;9341;-78
2022/03/30 13:12:43;;;;;;;;;37.67;35.67;;;;;;;;5041014;28;9198;-80
2022/03/30 13:15:12;;;;;;;;;42.33;36.67;;;;;;;;5039003;28;9192;-80
2022/03/30 13:17:56;;;;;;;;;35.00;31.67;;;;;;;;5042685;28;9196;-79
2022/03/30 13:20:24;;;;;;;;;39.00;34.67;;;;;;;;5043233;28;9090;-79
2022/03/30 13:22:52;;;;;;;;;40.67;35.00;;;;;;;;5043596;28;9242;-79
2022/03/30 13:25:32;;;;;;;;;38.67;34.00;;;;;;;;5041315;28;9203;-78
2022/03/30 13:28:02;;;;;;;;;35.33;33.00;;;;;;;;5023617;28;9217;-78
2022/03/30 13:30:29;;;;;;;;;35.33;32.67;;;;;;;;5030899;28;8976;-81
2022/03/30 13:32:57;;;;;;;;;42.00;38.33;;;;;;;;5036255;28;9306;-80
2022/03/30 13:35:25;;;;;;;;;44.67;37.67;;;;;;;;5034016;28;9374;-80
2022/03/30 13:37:56;;;;;;;;;39.67;36.00;;;;;;;;5037838;28;10086;-81
2022/03/30 13:40:56;;;;;;;;;34.33;33.00;;;;;;;;5042911;28;9330;-82
2022/03/30 13:43:35;;;;;;;;;42.00;34.00;;;;;;;;5044656;28;10127;-80
2022/03/30 13:46:02;;;;;;;;;42.33;35.00;;;;;;;;5025722;28;9260;-80
2022/03/30 13:48:31;;;;;;;;;40.00;34.33;;;;;;;;5037322;28;9363;-79
2022/03/30 13:51:01;;;;;;;;;34.33;31.67;;;;;;;;5012369;28;9465;-79
2022/03/30 13:53:29;;;;;;;;;35.00;33.00;;;;;;;;5044775;28;9183;-79
2022/03/30 13:55:56;;;;;;;;;36.67;35.00;;;;;;;;5043368;28;9262;-79
2022/03/30 13:58:24;;;;;;;;;41.33;36.33;;;;;;;;5044329;28;9377;-78
2022/03/30 14:00:54;;;;;;;;;32.67;31.33;;;;;;;;5041221;28;9353;-73
2022/03/30 14:03:22;;;;;;;;;33.33;33.00;;;;;;;;5040699;28;9384;-77
2022/03/30 14:05:49;;;;;;;;;35.00;32.67;;;;;;;;5040975;28;9384;-82
2022/03/30 14:08:17;;;;;;;;;33.33;32.67;;;;;;;;5037257;28;9597;-82
2022/03/30 14:10:44;;;;;;;;;40.00;32.50;;;;;;;;5040636;28;9474;-78
2022/03/30 14:13:12;;;;;;;;;42.00;35.00;;;;;;;;5041444;28;9505;-75
2022/03/30 14:15:39;;;;;;;;;33.25;32.00;;;;;;;;5024870;28;9587;-82
2022/03/30 14:18:09;;;;;;;;;35.00;33.50;;;;;;;;5041035;28;9566;-82
2022/03/30 14:20:38;;;;;;;;;38.00;35.67;;;;;;;;5041678;28;9557;-83
2022/03/30 14:23:06;;;;;;;;;31.33;31.33;;;;;;;;5022924;28;9392;-81
2022/03/30 14:25:34;;;;;;;;;31.67;29.67;;;;;;;;5044689;28;9335;-82
2022/03/30 14:28:01;;;;;;;;;31.33;30.67;;;;;;;;5043808;28;10138;-80
2022/03/30 14:30:29;;;;;;;;;33.00;33.00;;;;;;;;5022737;28;9361;-81
2022/03/30 14:32:57;;;;;;;;;49.50;40.75;;;;;;;;5022579;28;9328;-80
2022/03/30 14:35:29;;;;;;;;;46.25;38.75;;;;;;;;5042094;28;9807;-81
2022/03/30 14:37:57;;;;;;;;;50.75;42.25;;;;;;;;5045094;28;9650;-81
2022/03/30 14:40:24;;;;;;;;;47.50;39.00;;;;;;;;5042170;28;9806;-81
2022/03/30 14:42:52;;;;;;;;;52.75;44.25;;;;;;;;5023646;28;9927;-81